createdAt,value
2018-11-06T00:00:00.856Z,7.50
2018-11-06T00:02:29.301Z,7.60
2018-11-06T00:05:03.104Z,7.60
2018-11-06T00:07:31.548Z,7.60
2018-11-06T00:09:59.958Z,7.60
2018-11-06T00:12:28.638Z,7.60
2018-11-06T00:14:59.439Z,7.70
2018-11-06T00:17:27.892Z,7.60
2018-11-06T00:19:57.123Z,7.70
2018-11-06T00:22:25.702Z,7.70
2018-11-06T00:24:54.181Z,7.60
2018-11-06T00:27:22.593Z,7.60
2018-11-06T00:29:51.431Z,7.60
2018-11-06T00:32:19.937Z,7.60
2018-11-06T00:34:48.425Z,7.60
2018-11-06T00:37:16.868Z,7.60
2018-11-06T00:39:45.334Z,7.50
2018-11-06T00:42:13.831Z,7.60
2018-11-06T00:44:42.290Z,7.50
2018-11-06T00:47:10.837Z,7.50
2018-11-06T00:49:39.293Z,7.50
2018-11-06T00:52:08.001Z,7.50
2018-11-06T00:54:36.463Z,7.50
2018-11-06T00:57:05.040Z,7.50
2018-11-06T00:59:33.469Z,7.50
2018-11-06T01:02:01.979Z,7.60
2018-11-06T01:04:30.416Z,7.60
2018-11-06T01:06:58.930Z,7.60
2018-11-06T01:09:27.373Z,7.60
2018-11-06T01:11:55.845Z,7.70
2018-11-06T01:14:24.302Z,7.70
2018-11-06T01:16:52.682Z,7.70
2018-11-06T05:26:40.515Z,7.90
2018-11-06T05:29:08.925Z,7.90
2018-11-06T05:31:37.297Z,7.80
2018-11-06T05:34:05.777Z,7.80
2018-11-06T05:36:34.166Z,7.70
2018-11-06T05:39:02.601Z,7.70
2018-11-06T05:41:31.001Z,7.80
2018-11-06T05:43:59.422Z,7.70
2018-11-06T05:46:27.766Z,7.70
2018-11-06T05:48:56.125Z,7.70
2018-11-06T05:51:24.513Z,7.70
2018-11-06T05:53:52.897Z,7.70
2018-11-06T05:56:21.386Z,7.70
2018-11-06T05:58:49.754Z,7.70
2018-11-06T06:01:18.133Z,7.70
2018-11-06T06:03:47.149Z,7.70
2018-11-06T06:06:15.541Z,7.70
2018-11-06T06:08:43.911Z,7.70
2018-11-06T06:11:12.431Z,7.80
2018-11-06T06:13:40.758Z,7.80
2018-11-06T06:16:09.330Z,7.80
2018-11-06T06:18:37.793Z,7.80
2018-11-06T06:21:06.211Z,7.80
2018-11-06T06:23:34.737Z,7.80
2018-11-06T06:26:03.660Z,7.80
2018-11-06T06:28:32.131Z,7.80
2018-11-06T06:31:00.558Z,7.80
2018-11-06T06:33:29.065Z,7.80
2018-11-06T06:35:57.482Z,7.80
2018-11-06T06:38:25.868Z,7.70
2018-11-06T06:40:54.300Z,7.60
2018-11-06T06:43:22.687Z,7.70
2018-11-06T06:45:51.242Z,7.60
2018-11-06T06:48:19.649Z,7.60
2018-11-06T06:50:48.077Z,7.60
2018-11-06T06:53:17.218Z,7.60
2018-11-06T06:55:45.696Z,7.60
2018-11-06T06:58:14.144Z,7.60
2018-11-06T07:00:42.605Z,7.60
2018-11-06T07:03:11.030Z,7.60
2018-11-06T07:05:39.418Z,7.70
2018-11-06T07:08:07.839Z,7.70
2018-11-06T07:10:36.274Z,7.80
2018-11-06T07:13:05.013Z,7.80
2018-11-06T07:15:33.369Z,7.80
2018-11-06T07:18:02.591Z,7.90
2018-11-06T07:20:30.995Z,8.00
2018-11-06T07:22:59.428Z,8.00
2018-11-06T07:25:27.906Z,8.10
2018-11-06T07:27:56.423Z,8.20
2018-11-06T07:30:24.838Z,8.20
2018-11-06T07:32:53.198Z,8.20
2018-11-06T07:35:21.626Z,8.30
2018-11-06T07:37:49.993Z,8.30
2018-11-06T07:40:19.753Z,8.40
2018-11-06T07:42:48.133Z,8.50
2018-11-06T07:45:18.023Z,8.50
2018-11-06T07:47:46.417Z,8.50
2018-11-06T07:50:15.454Z,8.60
2018-11-06T07:52:44.167Z,8.60
2018-11-06T07:55:13.818Z,8.60
2018-11-06T07:57:42.282Z,8.60
2018-11-06T08:00:14.999Z,8.70
2018-11-06T08:02:44.281Z,8.70
2018-11-06T08:05:12.881Z,8.70
2018-11-06T08:07:41.343Z,8.80
2018-11-06T08:10:10.747Z,8.80
2018-11-06T08:12:41.385Z,8.90
2018-11-06T08:15:10.128Z,8.90
2018-11-06T08:17:38.698Z,9.00
2018-11-06T08:20:07.598Z,9.10
2018-11-06T08:22:36.097Z,9.20
2018-11-06T08:25:04.698Z,9.20
2018-11-06T08:27:33.107Z,9.40
2018-11-06T08:30:01.489Z,9.50
2018-11-06T08:32:30.386Z,9.60
2018-11-06T08:34:58.380Z,9.80
2018-11-06T08:37:26.853Z,9.90
2018-11-06T08:39:55.261Z,10.20
2018-11-06T08:42:23.676Z,10.30
2018-11-06T08:44:52.109Z,10.60
2018-11-06T08:47:20.587Z,10.80
2018-11-06T08:49:49.175Z,11.00
2018-11-06T08:52:18.312Z,11.20
2018-11-06T08:54:46.774Z,11.40
2018-11-06T08:57:15.762Z,11.50
2018-11-06T08:59:44.197Z,11.70
2018-11-06T09:02:12.674Z,12.00
2018-11-06T09:04:41.046Z,12.20
2018-11-06T09:07:09.458Z,12.30
2018-11-06T09:09:37.873Z,12.50
2018-11-06T09:12:06.252Z,12.70
2018-11-06T09:14:34.812Z,12.80
2018-11-06T09:17:03.349Z,13.10
2018-11-06T09:19:31.706Z,13.40
2018-11-06T09:22:00.118Z,13.70
2018-11-06T09:24:28.541Z,14.00
2018-11-06T09:26:56.924Z,14.20
2018-11-06T09:29:26.087Z,14.20
2018-11-06T09:31:54.500Z,14.30
2018-11-06T09:34:22.959Z,14.50
2018-11-06T09:36:51.423Z,14.80
2018-11-06T09:39:19.874Z,15.00
2018-11-06T09:41:48.272Z,15.20
2018-11-06T09:44:16.825Z,15.20
2018-11-06T09:46:45.242Z,15.70
2018-11-06T09:49:13.670Z,15.60
2018-11-06T09:51:42.810Z,15.80
2018-11-06T09:54:11.238Z,16.20
2018-11-06T09:56:39.650Z,16.20
2018-11-06T09:59:08.124Z,16.60
2018-11-06T10:01:36.501Z,16.70
2018-11-06T10:04:05.181Z,16.80
2018-11-06T10:06:33.705Z,16.80
2018-11-06T10:09:01.968Z,17.00
2018-11-06T10:11:30.392Z,17.40
2018-11-06T10:13:58.765Z,17.60
2018-11-06T10:16:27.157Z,17.80
2018-11-06T10:18:55.658Z,18.20
2018-11-06T10:21:24.082Z,18.20
2018-11-06T10:23:52.536Z,18.00
2018-11-06T10:26:21.437Z,17.80
2018-11-06T10:28:49.826Z,18.00
2018-11-06T10:31:18.231Z,17.80
2018-11-06T10:33:46.761Z,18.00
2018-11-06T10:36:15.398Z,17.60
2018-11-06T10:38:43.836Z,17.50
2018-11-06T10:41:12.802Z,17.50
2018-11-06T10:43:41.312Z,17.50
2018-11-06T10:46:09.707Z,17.60
2018-11-06T10:48:38.073Z,17.80
2018-11-06T10:51:06.526Z,17.70
2018-11-06T10:53:34.926Z,17.80
2018-11-06T10:56:03.330Z,17.80
2018-11-06T10:58:31.723Z,18.10
2018-11-06T11:01:05.474Z,18.60
2018-11-06T11:03:38.100Z,18.70
2018-11-06T11:06:06.586Z,18.90
2018-11-06T11:08:34.982Z,18.80
2018-11-06T11:11:03.422Z,18.90
2018-11-06T11:13:31.941Z,19.10
2018-11-06T11:16:00.493Z,19.40
2018-11-06T11:18:28.891Z,19.30
2018-11-06T11:20:57.449Z,19.40
2018-11-06T11:23:25.846Z,19.50
2018-11-06T11:25:54.274Z,19.80
2018-11-06T11:28:22.676Z,20.30
2018-11-06T11:30:51.088Z,20.30
2018-11-06T11:33:19.626Z,20.40
2018-11-06T11:35:48.003Z,20.30
2018-11-06T11:38:16.372Z,20.20
2018-11-06T11:40:44.861Z,20.40
2018-11-06T11:43:13.244Z,20.40
2018-11-06T11:45:42.507Z,19.90
2018-11-06T11:48:11.085Z,20.10
2018-11-06T11:50:39.509Z,20.20
2018-11-06T11:53:07.943Z,20.10
2018-11-06T11:55:36.318Z,19.90
2018-11-06T11:58:04.743Z,19.60
2018-11-06T12:00:37.681Z,19.60
2018-11-06T12:03:06.774Z,19.60
2018-11-06T12:05:35.781Z,19.40
2018-11-06T12:08:04.247Z,19.40
2018-11-06T12:10:32.654Z,19.30
2018-11-06T12:13:01.089Z,19.10
2018-11-06T12:15:29.489Z,19.00
2018-11-06T12:17:58.029Z,18.80
2018-11-06T12:20:26.410Z,18.80
2018-11-06T12:22:55.054Z,18.80
2018-11-06T12:25:23.804Z,18.70
2018-11-06T12:27:52.051Z,18.70
2018-11-06T12:30:20.570Z,18.50
2018-11-06T12:32:48.954Z,18.40
2018-11-06T12:35:18.091Z,18.30
2018-11-06T12:37:46.502Z,18.30
2018-11-06T12:40:15.217Z,18.20
2018-11-06T12:42:43.734Z,18.10
2018-11-06T12:45:13.492Z,18.00
2018-11-06T12:47:42.301Z,17.90
2018-11-06T12:50:10.972Z,17.90
2018-11-06T12:52:39.757Z,17.90
2018-11-06T12:55:09.449Z,17.90
2018-11-06T12:57:37.923Z,17.80
2018-11-06T13:00:08.549Z,17.80
2018-11-06T13:02:36.974Z,17.70
2018-11-06T13:05:05.922Z,17.70
2018-11-06T13:07:34.355Z,17.70
2018-11-06T13:10:02.894Z,17.70
2018-11-06T13:12:31.191Z,17.70
2018-11-06T13:14:59.545Z,17.70
2018-11-06T13:17:27.925Z,17.70
2018-11-06T13:19:56.282Z,17.80
2018-11-06T13:22:24.741Z,18.00
2018-11-06T13:24:53.270Z,18.10
2018-11-06T13:27:21.691Z,18.20
2018-11-06T13:29:50.060Z,18.20
2018-11-06T13:32:19.175Z,18.10
2018-11-06T13:34:48.381Z,18.10
2018-11-06T13:37:16.885Z,18.00
2018-11-06T13:39:45.374Z,17.90
2018-11-06T13:42:14.843Z,17.70
2018-11-06T13:44:43.538Z,17.60
2018-11-06T13:47:11.699Z,17.60
2018-11-06T13:49:40.207Z,17.60
2018-11-06T13:52:08.915Z,17.70
2018-11-06T13:54:37.411Z,17.70
2018-11-06T13:57:05.940Z,17.70
2018-11-06T13:59:34.385Z,17.70
2018-11-06T14:02:02.805Z,17.70
2018-11-06T14:04:31.230Z,17.70
2018-11-06T14:06:59.640Z,17.70
2018-11-06T14:09:28.034Z,17.60
2018-11-06T14:11:56.578Z,17.50
2018-11-06T14:14:24.959Z,17.40
2018-11-06T14:16:53.623Z,17.30
2018-11-06T14:19:22.127Z,17.20
2018-11-06T14:21:50.604Z,17.20
2018-11-06T14:24:19.182Z,17.10
2018-11-06T14:26:47.602Z,17.10
2018-11-06T14:29:16.047Z,17.10
2018-11-06T14:31:44.564Z,17.10
2018-11-06T14:34:12.982Z,17.10
2018-11-06T14:36:41.414Z,17.10
2018-11-06T14:39:09.918Z,17.00
2018-11-06T14:41:38.394Z,17.00
2018-11-06T14:44:06.946Z,16.90
2018-11-06T14:46:35.564Z,16.80
2018-11-06T14:49:04.235Z,16.80
2018-11-06T14:51:32.647Z,16.70
2018-11-06T14:54:01.094Z,16.70
2018-11-06T14:56:29.595Z,16.60
2018-11-06T14:58:58.168Z,16.60
2018-11-06T15:01:26.683Z,16.60
2018-11-06T15:03:55.242Z,16.50
2018-11-06T15:06:23.836Z,16.50
2018-11-06T15:08:52.355Z,16.40
2018-11-06T15:11:20.868Z,16.40
2018-11-06T15:13:49.600Z,16.30
2018-11-06T15:16:18.164Z,16.30
2018-11-06T15:18:46.640Z,16.20
2018-11-06T15:21:15.096Z,16.20
2018-11-06T15:23:43.553Z,16.10
2018-11-06T15:26:12.036Z,16.10
2018-11-06T15:28:40.493Z,16.00
2018-11-06T15:31:08.930Z,16.00
2018-11-06T15:33:37.433Z,15.80
2018-11-06T15:36:05.933Z,15.80
2018-11-06T15:38:34.484Z,15.70
2018-11-06T15:41:02.995Z,15.70
2018-11-06T15:43:31.380Z,15.60
2018-11-06T15:46:00.480Z,15.50
2018-11-06T15:48:29.426Z,15.50
2018-11-06T15:50:57.769Z,15.40
2018-11-06T15:53:26.192Z,15.30
2018-11-06T15:55:54.575Z,15.30
2018-11-06T15:58:23.101Z,15.20
2018-11-06T16:00:51.678Z,15.20
2018-11-06T16:03:20.154Z,15.10
2018-11-06T16:05:48.694Z,15.10
2018-11-06T16:08:17.176Z,15.00
2018-11-06T16:10:45.608Z,15.00
2018-11-06T16:13:13.990Z,14.90
2018-11-06T16:15:42.394Z,14.80
2018-11-06T16:18:10.888Z,14.80
2018-11-06T16:20:39.439Z,14.70
2018-11-06T16:23:07.842Z,14.70
2018-11-06T16:25:36.412Z,14.60
2018-11-06T16:28:04.871Z,14.60
2018-11-06T16:30:33.380Z,14.60
2018-11-06T16:33:01.885Z,14.40
2018-11-06T16:35:30.364Z,14.30
2018-11-06T16:37:58.761Z,14.20
2018-11-06T16:40:27.257Z,14.10
2018-11-06T16:42:55.783Z,14.10
2018-11-06T16:45:24.290Z,14.00
2018-11-06T16:47:53.153Z,13.90
2018-11-06T16:50:22.014Z,13.90
2018-11-06T16:52:50.433Z,13.80
2018-11-06T16:55:19.557Z,13.80
2018-11-06T16:57:48.182Z,13.70
2018-11-06T17:00:18.529Z,13.70
2018-11-06T17:02:46.869Z,13.60
2018-11-06T17:05:15.831Z,13.50
2018-11-06T17:07:44.631Z,13.50
2018-11-06T17:10:13.935Z,13.50
2018-11-06T17:12:42.352Z,13.40
2018-11-06T17:15:13.594Z,13.40
2018-11-06T17:17:42.336Z,13.30
2018-11-06T17:20:11.995Z,13.30
2018-11-06T17:22:40.581Z,13.30
2018-11-06T17:25:11.462Z,13.20
2018-11-06T17:27:40.147Z,13.20
2018-11-06T17:30:10.355Z,13.20
2018-11-06T17:32:39.651Z,13.10
2018-11-06T17:35:09.425Z,13.00
2018-11-06T17:37:38.387Z,13.00
2018-11-06T17:40:08.838Z,12.90
2018-11-06T17:42:37.353Z,12.90
2018-11-06T17:45:07.515Z,12.80
2018-11-06T17:47:35.950Z,12.80
2018-11-06T17:50:04.871Z,12.80
2018-11-06T17:52:33.282Z,12.70
2018-11-06T17:55:02.296Z,12.70
2018-11-06T17:57:30.685Z,12.70
2018-11-06T17:59:59.154Z,12.60
2018-11-06T18:02:27.611Z,12.60
2018-11-06T18:04:56.048Z,12.50
2018-11-06T18:07:24.409Z,12.50
2018-11-06T18:09:52.945Z,12.50
2018-11-06T18:12:22.665Z,12.40
2018-11-06T18:14:51.154Z,12.40
2018-11-06T18:17:19.635Z,12.40
2018-11-06T18:19:48.026Z,12.50
2018-11-06T18:22:16.505Z,12.40
2018-11-06T18:24:44.985Z,12.50
2018-11-06T18:27:13.599Z,12.50
2018-11-06T18:29:42.214Z,12.50
2018-11-06T18:32:10.669Z,12.50
2018-11-06T18:34:39.063Z,12.60
2018-11-06T18:37:07.482Z,12.60
2018-11-06T18:39:35.898Z,12.60
2018-11-06T18:42:04.397Z,12.60
2018-11-06T18:44:32.802Z,12.60
2018-11-06T18:47:01.230Z,12.60
2018-11-06T18:49:29.685Z,12.60
2018-11-06T18:51:58.270Z,12.60
2018-11-06T18:54:26.694Z,12.50
2018-11-06T18:56:55.070Z,12.50
2018-11-06T18:59:23.517Z,12.50
2018-11-06T19:01:51.945Z,12.50
2018-11-06T19:04:20.417Z,12.50
2018-11-06T19:06:48.803Z,12.40
2018-11-06T19:09:17.256Z,12.40
2018-11-06T19:11:45.684Z,12.40
2018-11-06T19:14:14.329Z,12.30
2018-11-06T19:16:42.924Z,12.40
2018-11-06T19:19:11.330Z,12.40
2018-11-06T19:21:39.769Z,12.40
2018-11-06T19:24:08.327Z,12.30
2018-11-06T19:26:37.041Z,12.40
2018-11-06T19:29:05.518Z,12.30
2018-11-06T19:31:34.869Z,12.30
2018-11-06T19:34:04.441Z,12.30
2018-11-06T19:36:33.021Z,12.20
2018-11-06T19:39:01.607Z,12.20
2018-11-06T19:41:30.055Z,12.20
2018-11-06T19:44:03.415Z,12.10
2018-11-06T19:46:31.910Z,12.10
2018-11-06T19:49:00.318Z,12.10
2018-11-06T19:51:28.728Z,12.10
2018-11-06T19:53:57.279Z,12.20
2018-11-06T19:56:25.877Z,12.10
2018-11-06T19:58:54.429Z,12.10
2018-11-06T20:01:23.928Z,12.10
2018-11-06T20:03:52.463Z,12.10
2018-11-06T20:06:21.209Z,12.20
2018-11-06T20:08:49.747Z,12.10
2018-11-06T20:11:18.151Z,12.10
2018-11-06T20:13:46.675Z,12.10
2018-11-06T20:16:15.202Z,12.00
2018-11-06T20:18:43.783Z,12.00
2018-11-06T20:21:12.196Z,12.00
2018-11-06T20:23:40.746Z,12.00
2018-11-06T20:26:09.145Z,12.00
2018-11-06T20:28:37.669Z,12.00
2018-11-06T20:31:06.314Z,12.00
2018-11-06T20:33:34.790Z,11.90
2018-11-06T20:36:03.349Z,11.90
2018-11-06T20:38:31.867Z,11.90
2018-11-06T20:41:00.313Z,11.90
2018-11-06T20:43:28.737Z,11.90
2018-11-06T20:45:57.142Z,11.90
2018-11-06T20:48:25.754Z,11.90
2018-11-06T20:50:54.153Z,11.80
2018-11-06T20:53:23.094Z,11.80
2018-11-06T20:55:51.507Z,11.80
2018-11-06T20:58:19.940Z,11.70
2018-11-06T21:00:48.337Z,11.70
2018-11-06T21:03:17.301Z,11.70
2018-11-06T21:05:45.792Z,11.60
2018-11-06T21:08:14.295Z,11.60
2018-11-06T21:10:42.796Z,11.60
2018-11-06T21:13:11.229Z,11.60
2018-11-06T21:15:39.702Z,11.60
2018-11-06T21:18:08.308Z,11.60
2018-11-06T21:20:36.686Z,11.60
2018-11-06T21:23:05.218Z,11.60
2018-11-06T21:25:33.843Z,11.60
2018-11-06T21:28:02.277Z,11.60
2018-11-06T21:30:30.666Z,11.60
2018-11-06T21:32:59.069Z,11.50
2018-11-06T21:35:27.453Z,11.50
2018-11-06T21:37:55.873Z,11.50
2018-11-06T21:40:28.297Z,11.50
2018-11-06T21:42:56.822Z,11.40
2018-11-06T21:45:25.286Z,11.50
2018-11-06T21:47:54.029Z,11.40
2018-11-06T21:50:22.498Z,11.40
2018-11-06T21:52:51.559Z,11.50
2018-11-06T21:55:20.185Z,11.50
2018-11-06T21:57:48.687Z,11.50
2018-11-06T22:00:18.917Z,11.50
2018-11-06T22:02:47.268Z,11.50
2018-11-06T22:05:17.145Z,11.50
2018-11-06T22:07:45.907Z,11.50
2018-11-06T22:10:18.747Z,11.50
2018-11-06T22:12:47.541Z,11.50
2018-11-06T22:15:17.170Z,11.50
2018-11-06T22:17:45.658Z,11.50
2018-11-06T22:20:16.198Z,11.50
2018-11-06T22:22:45.334Z,11.50
2018-11-06T22:25:13.851Z,11.50
2018-11-06T22:27:42.441Z,11.50
2018-11-06T22:30:12.231Z,11.50
2018-11-06T22:32:41.329Z,11.40
2018-11-06T22:35:11.214Z,11.40
2018-11-06T22:37:39.658Z,11.40
2018-11-06T22:40:08.782Z,11.40
2018-11-06T22:42:37.503Z,11.50
2018-11-06T22:45:07.610Z,11.40
2018-11-06T22:47:36.011Z,11.40
2018-11-06T22:50:04.657Z,11.40
2018-11-06T22:52:33.228Z,11.50
2018-11-06T22:55:01.633Z,11.60
2018-11-06T22:57:30.810Z,11.60
2018-11-06T22:59:59.261Z,11.60
2018-11-06T23:02:27.695Z,11.50
2018-11-06T23:04:56.261Z,11.60
2018-11-06T23:07:30.090Z,11.60
2018-11-06T23:09:58.617Z,11.60
2018-11-06T23:12:27.032Z,11.60
2018-11-06T23:14:55.455Z,11.60
2018-11-06T23:17:23.911Z,11.70
2018-11-06T23:19:52.294Z,11.60
2018-11-06T23:22:20.806Z,11.60
2018-11-06T23:24:49.381Z,11.60
2018-11-06T23:27:17.822Z,11.60
2018-11-06T23:29:46.452Z,11.60
2018-11-06T23:32:14.896Z,11.60
2018-11-06T23:34:43.510Z,11.60
2018-11-06T23:37:12.043Z,11.50
2018-11-06T23:39:40.581Z,11.50
2018-11-06T23:42:09.111Z,11.40
2018-11-06T23:44:37.650Z,11.40
2018-11-06T23:47:06.208Z,11.30
2018-11-06T23:49:34.753Z,11.40
2018-11-06T23:52:03.443Z,11.40
2018-11-06T23:54:31.957Z,11.50
2018-11-06T23:57:00.503Z,11.50
2018-11-06T23:59:29.088Z,11.50
